Time;durP1;ratioP1;P1;durP2;ratioP2;P2;SDS_P1;SDS_P2;PMS_P1;PMS_P2;Temp;Humidity;BMP_temperature;BMP_pressure;BME280_temperature;BME280_humidity;BME280_pressure;Samples;Min_cycle;Max_cycle;Signal;HPM_P1;HPM_P2
2023/01/23 00:00:12;;;;;;;43.92;23.85;;;;;;;1.33;100.00;93489.03;5058137;28;20346;-69
2023/01/23 00:02:39;;;;;;;41.47;23.75;;;;;;;1.41;100.00;93490.84;5059355;28;20052;-70
2023/01/23 00:05:08;;;;;;;50.63;28.33;;;;;;;1.41;100.00;93490.03;5060422;28;20049;-69
2023/01/23 00:07:35;;;;;;;75.60;37.67;;;;;;;1.41;100.00;93474.84;5058783;28;20443;-69
2023/01/23 00:10:02;;;;;;;76.82;37.75;;;;;;;1.44;100.00;93477.88;5052780;28;20114;-69
2023/01/23 00:12:29;;;;;;;85.30;39.75;;;;;;;1.50;100.00;93470.63;5049040;28;20048;-69
2023/01/23 00:14:56;;;;;;;77.13;36.15;;;;;;;1.54;100.00;93471.94;5062418;28;20057;-69
2023/01/23 00:17:25;;;;;;;55.75;31.23;;;;;;;1.54;100.00;93477.81;5065913;28;20440;-69
2023/01/23 00:19:53;;;;;;;34.45;21.42;;;;;;;1.46;100.00;93482.81;5058440;28;20049;-70
2023/01/23 00:22:21;;;;;;;32.75;20.88;;;;;;;1.44;100.00;93485.47;5057709;28;20055;-69
2023/01/23 00:24:48;;;;;;;36.97;22.70;;;;;;;1.35;100.00;93486.38;5055710;28;20045;-70
2023/01/23 00:27:15;;;;;;;29.65;19.15;;;;;;;1.24;100.00;93496.72;5058432;28;20052;-70
2023/01/23 00:29:42;;;;;;;31.58;19.23;;;;;;;1.25;100.00;93491.50;5059638;28;20186;-70
2023/01/23 00:32:08;;;;;;;22.27;16.48;;;;;;;1.26;100.00;93487.25;5055787;28;20045;-70
2023/01/23 00:34:35;;;;;;;23.08;15.20;;;;;;;1.22;100.00;93491.00;5055936;28;20044;-70
2023/01/23 00:37:02;;;;;;;28.13;16.80;;;;;;;1.16;100.00;93494.91;5058631;28;20053;-70
2023/01/23 00:39:30;;;;;;;26.38;16.95;;;;;;;1.19;100.00;93494.59;5057940;28;20386;-70
2023/01/23 00:41:57;;;;;;;33.92;22.35;;;;;;;1.25;100.00;93495.78;5058044;28;20056;-70
2023/01/23 00:44:23;;;;;;;23.30;15.77;;;;;;;1.26;100.00;93504.94;5059596;28;20044;-70
2023/01/23 00:46:50;;;;;;;21.08;14.50;;;;;;;1.30;100.00;93501.19;5058215;28;20045;-70
2023/01/23 00:49:17;;;;;;;20.20;13.93;;;;;;;1.29;100.00;93505.44;5061828;28;20049;-70
2023/01/23 00:51:44;;;;;;;28.80;18.20;;;;;;;1.24;100.00;93494.19;5063296;28;20434;-70
2023/01/23 00:54:11;;;;;;;28.35;19.05;;;;;;;1.24;100.00;93494.19;5061823;28;20049;-70
2023/01/23 00:56:39;;;;;;;24.23;16.50;;;;;;;1.35;100.00;93495.69;5055728;28;20102;-70
2023/01/23 00:59:05;;;;;;;24.13;16.63;;;;;;;1.38;100.00;93490.34;5051758;28;20048;-70
2023/01/23 01:01:32;;;;;;;43.35;27.52;;;;;;;1.28;100.00;93491.22;5051459;28;20409;-70
2023/01/23 01:04:00;;;;;;;44.78;27.52;;;;;;;1.10;100.00;93483.63;5051420;28;20052;-70
2023/01/23 01:06:28;;;;;;;35.67;22.30;;;;;;;1.02;100.00;93491.16;5051763;28;20049;-70
2023/01/23 01:08:56;;;;;;;36.25;23.77;;;;;;;1.13;100.00;93493.47;5051233;28;20087;-70
2023/01/23 01:11:22;;;;;;;38.08;23.95;;;;;;;1.07;100.00;93488.97;5051568;28;20124;-70
2023/01/23 01:13:51;;;;;;;94.93;55.53;;;;;;;1.17;100.00;93504.09;5051594;28;20049;-70
2023/01/23 01:16:18;;;;;;;54.70;35.35;;;;;;;1.18;100.00;93509.00;5051540;28;20041;-70
2023/01/23 01:18:45;;;;;;;53.15;33.30;;;;;;;1.18;100.00;93509.00;5051396;28;20379;-70
2023/01/23 01:21:14;;;;;;;42.58;27.23;;;;;;;1.20;100.00;93513.91;5051232;28;20052;-70
2023/01/23 01:23:41;;;;;;;37.35;24.70;;;;;;;1.27;100.00;93525.06;5051011;28;20555;-70
2023/01/23 01:26:08;;;;;;;32.20;21.60;;;;;;;1.19;100.00;93520.72;5051262;28;20041;-70
2023/01/23 01:28:38;;;;;;;35.15;23.10;;;;;;;1.13;100.00;93523.81;5053870;28;20052;-70
2023/01/23 01:31:08;;;;;;;36.13;23.95;;;;;;;1.07;100.00;93509.22;5071143;28;20044;-70
2023/01/23 01:33:37;;;;;;;32.00;21.15;;;;;;;1.19;100.00;93530.03;5067860;28;20094;-70
2023/01/23 01:36:08;;;;;;;40.78;25.85;;;;;;;0.95;100.00;93523.81;5068957;28;20071;-70
2023/01/23 01:38:35;;;;;;;30.00;20.48;;;;;;;0.98;100.00;93525.25;5070184;28;20040;-69
2023/01/23 01:41:02;;;;;;;152.30;81.13;;;;;;;1.03;100.00;93520.56;5070518;28;20056;-69
2023/01/23 01:43:29;;;;;;;33.95;22.20;;;;;;;0.74;100.00;93519.78;5070988;28;20036;-70
2023/01/23 01:46:11;;;;;;;35.72;23.58;;;;;;;0.75;100.00;93515.53;5071085;28;20049;-70
2023/01/23 01:48:43;;;;;;;112.35;72.72;;;;;;;0.85;100.00;93523.06;5070404;28;20049;-70
2023/01/23 01:51:21;;;;;;;97.13;64.15;;;;;;;0.94;100.00;93519.69;5070510;28;20045;-69
2023/01/23 01:53:58;;;;;;;40.75;26.60;;;;;;;0.99;100.00;93509.13;5070737;28;20098;-69
2023/01/23 01:56:28;;;;;;;36.60;24.17;;;;;;;1.02;100.00;93506.31;5070536;28;20052;-69
2023/01/23 01:58:55;;;;;;;42.47;26.83;;;;;;;1.03;100.00;93516.28;5069834;28;20076;-69
2023/01/23 02:01:23;;;;;;;32.53;22.48;;;;;;;1.08;100.00;93520.94;5069995;28;20056;-69
2023/01/23 02:03:51;;;;;;;42.28;27.50;;;;;;;1.04;100.00;93524.69;5070159;28;20048;-70
2023/01/23 02:06:19;;;;;;;47.38;32.08;;;;;;;0.97;100.00;93514.31;5070051;28;20045;-70
2023/01/23 02:08:53;;;;;;;42.45;28.25;;;;;;;0.99;100.00;93511.66;5070376;28;20110;-69
2023/01/23 02:11:20;;;;;;;37.17;25.48;;;;;;;1.08;100.00;93518.41;5070561;28;20117;-70
2023/01/23 02:13:47;;;;;;;46.70;29.08;;;;;;;1.13;100.00;93513.69;5070438;28;20451;-69
2023/01/23 02:16:19;;;;;;;43.85;28.80;;;;;;;1.17;100.00;93517.50;5070245;28;20040;-69
2023/01/23 02:18:49;;;;;;;52.60;33.92;;;;;;;1.20;100.00;93513.91;5070262;28;20101;-70
2023/01/23 02:21:21;;;;;;;32.72;22.90;;;;;;;1.17;100.00;93522.56;5069949;28;20493;-70
2023/01/23 02:24:02;;;;;;;33.70;22.45;;;;;;;1.20;100.00;93518.97;5070273;28;20101;-70
2023/01/23 02:26:35;;;;;;;28.98;19.85;;;;;;;1.17;100.00;93525.09;5070079;28;20041;-70
2023/01/23 02:29:03;;;;;;;21.45;15.63;;;;;;;1.19;100.00;93519.91;5069994;28;20481;-69
2023/01/23 02:31:29;;;;;;;24.10;15.20;;;;;;;1.18;100.00;93525.91;5069784;28;20098;-70
2023/01/23 02:33:58;;;;;;;20.48;14.50;;;;;;;1.16;100.00;93523.53;5070023;28;20094;-70
2023/01/23 02:36:27;;;;;;;21.38;14.50;;;;;;;1.16;100.00;93527.81;5069913;28;20044;-69
2023/01/23 02:39:02;;;;;;;24.38;14.13;;;;;;;1.22;100.00;93524.69;5069513;28;20094;-70
2023/01/23 02:41:33;;;;;;;22.50;16.07;;;;;;;1.21;100.00;93515.50;5069630;28;20091;-69
2023/01/23 02:44:02;;;;;;;23.40;15.23;;;;;;;1.22;100.00;93511.22;5069532;28;20339;-69
2023/01/23 02:46:29;;;;;;;24.83;14.88;;;;;;;1.21;100.00;93515.50;5069476;28;20447;-70
2023/01/23 02:48:56;;;;;;;25.13;15.07;;;;;;;1.23;100.00;93520.41;5069743;28;20114;-70
2023/01/23 02:51:23;;;;;;;27.13;15.90;;;;;;;1.25;100.00;93516.78;5069346;28;20493;-70
2023/01/23 02:53:50;;;;;;;26.55;17.98;;;;;;;1.31;100.00;93508.63;5069376;28;20101;-69
2023/01/23 02:56:17;;;;;;;34.88;24.95;;;;;;;1.40;100.00;93516.28;5069593;28;20041;-69
2023/01/23 03:01:30;;;;;;;24.60;15.65;;;;;;;1.39;100.00;93504.59;5069188;28;20170;-69
2023/01/23 03:04:02;;;;;;;30.95;17.33;;;;;;;1.38;100.00;93505.53;5069144;28;20052;-69
2023/01/23 03:06:34;;;;;;;28.15;18.60;;;;;;;1.44;100.00;93520.91;5069507;28;20040;-69
2023/01/23 03:09:06;;;;;;;28.02;18.02;;;;;;;1.49;100.00;93527.28;5069630;28;20051;-69
2023/01/23 03:11:34;;;;;;;30.85;19.38;;;;;;;1.49;100.00;93524.75;5068802;28;20071;-70
2023/01/23 03:14:02;;;;;;;34.30;20.80;;;;;;;1.36;100.00;93503.16;5069008;28;20097;-70
2023/01/23 03:16:29;;;;;;;31.42;19.85;;;;;;;1.52;100.00;93516.88;5069258;28;20041;-70
2023/01/23 03:19:00;;;;;;;25.88;16.85;;;;;;;1.50;100.00;93514.50;5069136;28;20102;-70
2023/01/23 03:21:27;;;;;;;26.02;17.45;;;;;;;1.17;100.00;93499.81;5068755;28;20057;-70
2023/01/23 03:23:53;;;;;;;26.50;17.60;;;;;;;1.02;100.00;93499.50;5069012;28;20040;-69
2023/01/23 03:26:20;;;;;;;28.48;18.05;;;;;;;1.05;100.00;93506.84;5068860;28;20040;-70
2023/01/23 03:31:32;;;;;;;30.67;20.23;;;;;;;1.24;100.00;93512.69;5068711;28;20062;-70
2023/01/23 03:33:59;;;;;;;39.50;25.08;;;;;;;1.29;100.00;93514.78;5069017;28;20094;-70
2023/01/23 03:36:25;;;;;;;34.50;23.98;;;;;;;1.25;100.00;93514.25;5068915;28;20094;-69
2023/01/23 03:41:40;;;;;;;34.95;23.80;;;;;;;1.23;100.00;93507.75;5068851;28;20197;-69
2023/01/23 03:44:07;;;;;;;37.08;26.38;;;;;;;1.06;100.00;93513.47;5068611;28;20102;-69
2023/01/23 03:46:35;;;;;;;36.13;25.27;;;;;;;1.18;100.00;93506.47;5068492;28;20040;-69
2023/01/23 03:49:02;;;;;;;37.30;22.10;;;;;;;1.24;100.00;93504.31;5068479;28;20044;-69
2023/01/23 03:51:29;;;;;;;33.60;24.30;;;;;;;1.32;100.00;93495.06;5068606;28;20098;-69
2023/01/23 03:53:55;;;;;;;28.08;17.92;;;;;;;1.31;100.00;93495.97;5068939;28;20102;-70
2023/01/23 03:56:22;;;;;;;33.97;22.75;;;;;;;1.44;100.00;93500.66;5068448;28;20048;-70
2023/01/23 03:58:49;;;;;;;33.50;23.10;;;;;;;1.45;100.00;93497.19;5068376;28;20421;-70
2023/01/23 04:01:16;;;;;;;32.42;22.27;;;;;;;1.55;100.00;93506.44;5068513;28;20048;-70
2023/01/23 04:03:44;;;;;;;37.00;23.50;;;;;;;1.56;100.00;93516.44;5068577;28;20072;-70
2023/01/23 04:06:11;;;;;;;41.47;26.95;;;;;;;1.60;100.00;93517.75;5068544;28;20515;-70
2023/01/23 04:08:37;;;;;;;44.80;31.23;;;;;;;1.63;100.00;93508.25;5068753;28;20102;-70
2023/01/23 04:11:06;;;;;;;53.63;35.47;;;;;;;1.42;100.00;93506.81;5068592;28;20097;-70
2023/01/23 04:13:33;;;;;;;36.47;25.17;;;;;;;1.15;100.00;93509.28;5068378;28;20535;-70
2023/01/23 04:16:01;;;;;;;31.00;20.15;;;;;;;1.05;100.00;93508.56;5068269;28;20044;-69
2023/01/23 04:18:28;;;;;;;36.90;25.08;;;;;;;1.18;100.00;93501.41;5045893;28;20049;-69
2023/01/23 04:20:57;;;;;;;44.13;30.20;;;;;;;1.23;100.00;93518.69;5048391;28;20095;-69
2023/01/23 04:23:24;;;;;;;42.15;27.58;;;;;;;1.29;100.00;93522.38;5051427;28;20044;-70
2023/01/23 04:25:51;;;;;;;34.22;22.83;;;;;;;1.28;100.00;93521.59;5052140;28;20443;-69
2023/01/23 04:28:18;;;;;;;33.45;23.75;;;;;;;1.32;100.00;93529.69;5052303;28;20045;-69
2023/01/23 04:30:46;;;;;;;34.15;23.40;;;;;;;1.43;100.00;93531.22;5072342;28;20103;-69
2023/01/23 04:33:12;;;;;;;32.58;20.50;;;;;;;1.45;100.00;93511.59;5072146;28;20110;-69
2023/01/23 04:35:39;;;;;;;36.58;22.85;;;;;;;1.54;100.00;93530.19;5072377;28;20455;-69
2023/01/23 04:38:07;;;;;;;30.88;20.23;;;;;;;1.57;100.00;93523.06;5072195;28;20090;-70
2023/01/23 04:40:34;;;;;;;36.33;20.40;;;;;;;1.63;100.00;93519.19;5072034;28;20118;-70
2023/01/23 04:43:01;;;;;;;28.45;20.98;;;;;;;1.64;100.00;93504.75;5067161;28;20049;-70
2023/01/23 04:45:27;;;;;;;32.40;20.00;;;;;;;1.66;100.00;93505.44;5070518;28;20055;-70
2023/01/23 04:47:54;;;;;;;35.65;23.35;;;;;;;1.61;100.00;93498.25;5071869;28;20130;-70
2023/01/23 04:50:21;;;;;;;37.65;23.00;;;;;;;1.66;100.00;93497.84;5071656;28;20102;-70
2023/01/23 04:52:47;;;;;;;41.10;25.10;;;;;;;1.69;100.00;93511.00;5071631;28;20481;-70
2023/01/23 04:55:15;;;;;;;36.22;23.88;;;;;;;1.74;100.00;93508.00;5071568;28;20107;-70
2023/01/23 04:57:42;;;;;;;41.33;23.95;;;;;;;1.76;100.00;93501.03;5071639;28;20056;-69
2023/01/23 05:00:10;;;;;;;39.42;25.67;;;;;;;1.79;100.00;93523.56;5071432;28;20550;-70
2023/01/23 05:02:37;;;;;;;35.92;23.35;;;;;;;1.78;100.00;93536.38;5071584;28;20044;-69
2023/01/23 05:05:05;;;;;;;45.33;27.15;;;;;;;1.75;100.00;93539.97;5071236;28;20041;-70
2023/01/23 05:07:32;;;;;;;35.35;23.60;;;;;;;1.59;100.00;93533.84;5071143;28;20036;-70
2023/01/23 05:09:58;;;;;;;39.38;24.00;;;;;;;1.53;100.00;93531.13;5071236;28;20056;-70
2023/01/23 05:12:26;;;;;;;37.70;25.70;;;;;;;1.57;100.00;93545.09;5063519;28;20045;-70
2023/01/23 05:14:53;;;;;;;42.75;28.15;;;;;;;1.68;100.00;93544.06;5051362;28;20095;-70
2023/01/23 05:17:20;;;;;;;45.55;27.30;;;;;;;1.72;100.00;93543.59;5051242;28;20041;-70
2023/01/23 05:19:47;;;;;;;44.35;26.48;;;;;;;1.76;100.00;93528.91;5051565;28;20041;-70
2023/01/23 05:22:13;;;;;;;37.67;25.05;;;;;;;1.79;100.00;93533.69;5051198;28;20443;-70
2023/01/23 05:24:40;;;;;;;36.05;24.67;;;;;;;1.73;100.00;93545.19;5051009;28;20575;-70
2023/01/23 05:27:07;;;;;;;35.72;24.10;;;;;;;1.81;100.00;93547.00;5051100;28;20091;-69
2023/01/23 05:29:35;;;;;;;43.20;28.05;;;;;;;1.71;100.00;93553.91;5061399;28;20110;-70
2023/01/23 05:32:02;;;;;;;29.88;21.02;;;;;;;1.60;100.00;93539.72;5071183;28;20094;-70
2023/01/23 05:34:29;;;;;;;44.63;28.65;;;;;;;1.59;100.00;93548.25;5064022;28;20063;-70
2023/01/23 05:36:55;;;;;;;32.70;19.92;;;;;;;1.46;100.00;93529.19;5050971;28;20052;-70
2023/01/23 05:39:22;;;;;;;127.43;69.28;;;;;;;1.21;100.00;93540.81;5051016;28;20409;-70
2023/01/23 05:41:49;;;;;;;82.45;45.15;;;;;;;1.44;100.00;93553.03;5050903;28;20052;-70
2023/01/23 05:44:16;;;;;;;47.38;26.00;;;;;;;1.52;100.00;93549.78;5050901;28;20091;-71
2023/01/23 05:46:44;;;;;;;42.97;24.35;;;;;;;1.14;100.00;93550.72;5050750;28;20048;-70
2023/01/23 05:49:11;;;;;;;38.75;25.63;;;;;;;1.15;100.00;93551.53;5050643;28;20041;-70
2023/01/23 05:51:37;;;;;;;42.13;27.38;;;;;;;1.07;100.00;93549.69;5050590;28;20486;-70
2023/01/23 05:54:04;;;;;;;43.20;25.85;;;;;;;1.05;100.00;93561.69;5050689;28;20045;-69
2023/01/23 05:56:31;;;;;;;43.58;27.75;;;;;;;1.14;100.00;93563.38;5050412;28;20045;-69
2023/01/23 05:58:58;;;;;;;40.20;25.95;;;;;;;1.25;100.00;93564.09;5050596;28;20053;-70
2023/01/23 06:01:25;;;;;;;44.78;27.02;;;;;;;1.32;100.00;93565.91;5050526;28;20045;-69
2023/01/23 06:03:53;;;;;;;51.58;33.50;;;;;;;1.35;100.00;93571.63;5056534;28;20078;-70
2023/01/23 06:06:19;;;;;;;90.82;57.85;;;;;;;1.33;100.00;93572.56;5068380;28;20086;-69
2023/01/23 06:08:46;;;;;;;52.50;32.88;;;;;;;1.35;100.00;93572.44;5069717;28;20044;-70
2023/01/23 06:11:13;;;;;;;60.97;36.88;;;;;;;1.42;100.00;93585.28;5070254;28;20040;-70
2023/01/23 06:13:39;;;;;;;59.42;34.67;;;;;;;1.49;100.00;93591.38;5070024;28;20040;-70
2023/01/23 06:16:08;;;;;;;55.65;32.08;;;;;;;1.58;100.00;93594.78;5070304;28;20056;-70
2023/01/23 06:18:35;;;;;;;65.35;45.05;;;;;;;1.62;100.00;93582.63;5069824;28;20040;-70
2023/01/23 06:21:04;;;;;;;67.65;44.33;;;;;;;1.60;100.00;93575.97;5069864;28;20102;-69
2023/01/23 06:23:30;;;;;;;69.97;42.38;;;;;;;1.60;100.00;93585.28;5047391;28;20457;-69
2023/01/23 06:26:00;;;;;;;61.88;37.33;;;;;;;1.71;100.00;93594.44;5050113;28;20390;-69
2023/01/23 06:28:27;;;;;;;61.30;38.75;;;;;;;1.80;100.00;93585.94;5051759;28;20048;-69
2023/01/23 06:30:54;;;;;;;67.22;42.25;;;;;;;1.79;100.00;93583.53;5069829;28;20110;-70
2023/01/23 06:33:20;;;;;;;63.58;39.65;;;;;;;1.80;100.00;93591.00;5069690;28;20504;-69
2023/01/23 06:35:48;;;;;;;57.83;35.17;;;;;;;1.90;100.00;93590.91;5069831;28;20098;-70
2023/01/23 06:38:16;;;;;;;56.58;34.28;;;;;;;1.89;100.00;93594.38;5070143;28;20044;-69
2023/01/23 06:40:44;;;;;;;110.32;52.40;;;;;;;1.76;100.00;93584.63;5069380;28;20048;-69
2023/01/23 06:43:10;;;;;;;71.18;38.47;;;;;;;1.93;100.00;93610.91;5069910;28;20488;-69
2023/01/23 06:45:37;;;;;;;85.15;48.63;;;;;;;1.96;100.00;93617.41;5068820;28;20130;-70
2023/01/23 06:48:04;;;;;;;99.13;56.95;;;;;;;2.00;100.00;93614.44;5069381;28;20044;-70
2023/01/23 06:50:31;;;;;;;70.70;45.08;;;;;;;1.76;100.00;93614.25;5069560;28;20102;-70
2023/01/23 06:52:57;;;;;;;74.95;46.10;;;;;;;1.82;100.00;93614.47;5069246;28;20095;-69
2023/01/23 06:55:25;;;;;;;54.92;34.70;;;;;;;1.75;100.00;93615.97;5069405;28;20044;-69
2023/01/23 06:57:52;;;;;;;71.22;42.53;;;;;;;1.87;100.00;93622.41;5068817;28;20106;-69
2023/01/23 07:00:20;;;;;;;95.85;56.63;;;;;;;1.94;100.00;93625.16;5069359;28;20040;-69
2023/01/23 07:02:46;;;;;;;95.95;59.75;;;;;;;2.03;100.00;93623.47;5069095;28;20044;-70
2023/01/23 07:05:13;;;;;;;81.85;50.38;;;;;;;2.05;100.00;93626.69;5069079;28;20087;-70
2023/01/23 07:07:40;;;;;;;77.68;49.20;;;;;;;2.05;100.00;93615.72;5069193;28;21161;-70
2023/01/23 07:10:08;;;;;;;74.05;48.65;;;;;;;1.99;100.00;93617.13;5069319;28;20443;-70
2023/01/23 07:12:36;;;;;;;67.82;40.80;;;;;;;1.75;100.00;93615.19;5069152;28;20071;-69
2023/01/23 07:15:03;;;;;;;60.28;34.50;;;;;;;1.79;100.00;93621.53;5069255;28;20041;-70
2023/01/23 07:17:29;;;;;;;56.05;34.65;;;;;;;1.79;100.00;93621.53;5069282;28;20455;-70
2023/01/23 07:19:56;;;;;;;60.72;36.95;;;;;;;1.95;100.00;93625.97;5068961;28;20044;-70
2023/01/23 07:22:23;;;;;;;67.78;42.38;;;;;;;1.79;100.00;93604.59;5069376;28;20459;-70
2023/01/23 07:24:50;;;;;;;64.63;40.88;;;;;;;2.05;100.00;93629.22;5068880;28;20064;-70
2023/01/23 07:27:17;;;;;;;60.85;37.92;;;;;;;2.10;100.00;93634.63;5069089;28;20456;-70
2023/01/23 07:29:45;;;;;;;69.30;41.15;;;;;;;2.23;100.00;93636.75;5066745;28;20435;-70
2023/01/23 07:32:11;;;;;;;60.38;36.70;;;;;;;2.45;100.00;93647.38;5066787;28;20370;-70
2023/01/23 07:34:38;;;;;;;66.75;41.45;;;;;;;2.56;100.00;93631.13;5067671;28;20488;-70
2023/01/23 07:37:05;;;;;;;58.17;34.45;;;;;;;2.66;100.00;93651.31;5068757;28;20040;-70
2023/01/23 07:39:32;;;;;;;56.00;36.58;;;;;;;2.77;100.00;93652.78;5068563;28;20090;-70
2023/01/23 07:41:58;;;;;;;51.50;33.95;;;;;;;2.94;100.00;93656.22;5068558;28;20048;-69
2023/01/23 07:44:25;;;;;;;66.47;39.13;;;;;;;3.00;100.00;93648.00;5068671;28;20040;-70
2023/01/23 07:46:53;;;;;;;105.57;61.42;;;;;;;3.03;100.00;93650.25;5053346;28;20106;-70
2023/01/23 07:49:20;;;;;;;190.50;108.32;;;;;;;3.18;100.00;93660.59;5048265;28;20501;-70
2023/01/23 07:51:47;;;;;;;138.05;80.75;;;;;;;3.32;100.00;93655.88;5048605;28;20464;-70
2023/01/23 07:54:14;;;;;;;106.45;64.57;;;;;;;3.40;100.00;93661.00;5048543;28;20048;-70
2023/01/23 07:56:40;;;;;;;137.25;84.68;;;;;;;3.46;100.00;93654.50;5048208;28;20065;-70
2023/01/23 07:59:07;;;;;;;117.53;69.57;;;;;;;3.53;100.00;93655.47;5048560;28;20118;-70
2023/01/23 08:01:34;;;;;;;175.40;102.15;;;;;;;3.65;100.00;93667.91;5048265;28;20045;-70
2023/01/23 08:04:02;;;;;;;234.00;140.88;;;;;;;3.73;100.00;93675.53;5048249;28;20509;-70
2023/01/23 08:06:29;;;;;;;186.73;115.63;;;;;;;3.82;100.00;93683.94;5048277;28;20044;-69
2023/01/23 08:08:55;;;;;;;163.32;95.97;;;;;;;3.86;100.00;93683.50;5048167;28;20547;-70
2023/01/23 08:11:25;;;;;;;104.57;59.85;;;;;;;3.93;100.00;93678.56;5048311;28;20045;-70
2023/01/23 08:13:52;;;;;;;94.22;48.70;;;;;;;4.01;100.00;93676.06;5045902;28;20501;-70
2023/01/23 08:16:19;;;;;;;103.80;55.33;;;;;;;3.97;100.00;93676.50;5048179;28;20497;-70
2023/01/23 08:18:45;;;;;;;91.57;49.80;;;;;;;4.03;100.00;93693.66;5048048;28;20045;-70
2023/01/23 08:21:13;;;;;;;78.55;46.08;;;;;;;4.12;100.00;93692.72;5048278;28;20044;-70
2023/01/23 08:23:41;;;;;;;81.68;47.38;;;;;;;3.99;100.00;93685.56;5048259;28;20335;-69
2023/01/23 08:26:09;;;;;;;88.35;52.10;;;;;;;4.03;100.00;93678.41;5048314;28;20053;-70
2023/01/23 08:28:36;;;;;;;79.90;47.95;;;;;;;3.96;100.00;93675.72;5051139;28;20106;-70
2023/01/23 08:31:06;;;;;;;85.80;54.28;;;;;;;4.01;100.00;93677.78;5068199;28;20086;-70
2023/01/23 08:33:34;;;;;;;70.03;42.85;;;;;;;4.07;100.00;93681.47;5068002;28;20044;-70
2023/01/23 08:36:01;;;;;;;72.85;41.03;;;;;;;4.09;100.00;93682.91;5067973;28;20075;-69
2023/01/23 08:38:30;;;;;;;60.78;35.13;;;;;;;4.13;100.00;93691.78;5067811;28;20547;-70
2023/01/23 08:40:59;;;;;;;59.45;36.05;;;;;;;4.21;100.00;93690.22;5068005;28;20128;-70
2023/01/23 08:43:26;;;;;;;58.83;35.25;;;;;;;4.21;100.00;93685.13;5067787;28;20048;-70
2023/01/23 08:45:54;;;;;;;74.82;41.78;;;;;;;4.22;100.00;93687.50;5068043;28;20051;-70
2023/01/23 08:48:23;;;;;;;86.35;48.28;;;;;;;4.33;100.00;93688.13;5068227;28;20036;-70
2023/01/23 08:50:50;;;;;;;85.88;46.35;;;;;;;4.37;100.00;93685.13;5067957;28;20052;-70
2023/01/23 08:53:17;;;;;;;70.45;37.55;;;;;;;4.48;100.00;93693.38;5067808;28;20062;-70
2023/01/23 08:55:45;;;;;;;77.82;39.78;;;;;;;4.50;100.00;93694.03;5049015;28;20088;-71
2023/01/23 08:58:12;;;;;;;70.38;39.05;;;;;;;4.67;100.00;93697.34;5060154;28;20452;-70
2023/01/23 09:00:40;;;;;;;68.70;39.10;;;;;;;4.84;100.00;93705.75;5068202;28;20051;-70
2023/01/23 09:03:07;;;;;;;75.45;39.85;;;;;;;4.98;100.00;93701.75;5067554;28;20051;-70
2023/01/23 09:05:36;;;;;;;72.00;40.00;;;;;;;5.13;100.00;93688.34;5068229;28;20045;-70
2023/01/23 09:08:03;;;;;;;87.78;41.45;;;;;;;5.27;100.00;93689.44;5068611;28;20689;-70
2023/01/23 09:10:29;;;;;;;75.78;41.85;;;;;;;5.46;100.00;93693.34;5071703;28;20040;-70
2023/01/23 09:12:57;;;;;;;70.68;38.35;;;;;;;5.57;100.00;93692.16;5071641;28;20408;-70
2023/01/23 09:15:24;;;;;;;67.53;37.58;;;;;;;5.62;100.00;93690.69;5071179;28;20045;-70
2023/01/23 09:17:51;;;;;;;65.28;38.45;;;;;;;5.52;100.00;93702.84;5071402;28;20052;-70
2023/01/23 09:20:18;;;;;;;65.78;39.28;;;;;;;5.52;100.00;93690.13;5071238;28;20094;-70
2023/01/23 09:22:45;;;;;;;52.33;32.08;;;;;;;5.44;100.00;93692.69;5071219;28;20090;-70
2023/01/23 09:25:13;;;;;;;59.53;36.00;;;;;;;5.40;100.00;93691.41;5071465;28;20040;-70
2023/01/23 09:27:40;;;;;;;53.92;31.88;;;;;;;5.53;100.00;93684.06;5071333;28;20568;-70
2023/01/23 09:30:09;;;;;;;51.40;30.25;;;;;;;5.53;100.00;93673.06;5071109;28;20106;-70
2023/01/23 09:32:36;;;;;;;57.45;35.25;;;;;;;5.62;100.00;93684.81;5071252;28;20110;-70
2023/01/23 09:35:04;;;;;;;66.43;38.60;;;;;;;5.69;100.00;93688.28;5071209;28;20114;-70
2023/01/23 09:37:58;;;;;;;50.03;32.78;;;;;;;5.59;100.00;93678.28;5070607;28;20099;-70
2023/01/23 09:40:22;;;;;;;52.78;31.40;;;;;;;5.84;100.00;93685.03;5070984;28;20420;-70
2023/01/23 09:42:50;;;;;;;47.33;27.33;;;;;;;5.88;100.00;93688.81;5070952;28;20102;-70
2023/01/23 09:45:22;;;;;;;65.78;35.35;;;;;;;5.96;100.00;93686.22;5071141;28;20497;-70
2023/01/23 09:47:53;;;;;;;57.47;31.48;;;;;;;6.09;100.00;93689.97;5070844;28;20550;-70
2023/01/23 09:50:25;;;;;;;53.38;29.85;;;;;;;6.04;100.00;93692.25;5070167;28;20090;-71
2023/01/23 09:52:58;;;;;;;52.92;29.77;;;;;;;6.00;100.00;93700.22;5070639;28;20094;-71
2023/01/23 09:55:35;;;;;;;46.40;26.48;;;;;;;6.08;100.00;93698.59;5071088;28;20040;-71
2023/01/23 09:58:04;;;;;;;52.20;27.45;;;;;;;5.96;100.00;93691.31;5070296;28;20056;-69
2023/01/23 10:00:35;;;;;;;43.53;24.42;;;;;;;6.11;100.00;93696.50;5070041;28;20464;-70
2023/01/23 10:03:06;;;;;;;41.03;22.42;;;;;;;6.18;100.00;93691.53;5050599;28;20041;-71
2023/01/23 10:05:43;;;;;;;39.75;24.75;;;;;;;6.30;100.00;93684.28;5050168;28;20087;-70
2023/01/23 10:08:24;;;;;;;41.25;26.30;;;;;;;6.34;100.00;93685.50;5050686;28;20041;-70
2023/01/23 10:10:59;;;;;;;42.13;27.05;;;;;;;6.34;100.00;93677.84;5050266;28;20516;-70
2023/01/23 10:13:39;;;;;;;41.30;24.75;;;;;;;6.49;100.00;93682.97;5050506;28;20049;-70
2023/01/23 10:16:28;;;;;;;34.05;23.52;;;;;;;6.34;100.00;93670.19;5050358;28;20577;-69
2023/01/23 10:19:07;;;;;;;33.80;22.45;;;;;;;6.39;100.00;93680.69;5050602;28;20091;-70
2023/01/23 10:21:39;;;;;;;34.83;20.25;;;;;;;6.51;100.00;93685.38;5067111;28;20053;-70
2023/01/23 10:24:25;;;;;;;39.17;23.95;;;;;;;6.58;100.00;93677.81;5060691;28;20574;-69
2023/01/23 10:26:56;;;;;;;36.90;22.00;;;;;;;6.63;100.00;93668.66;5066097;28;20049;-70
2023/01/23 10:29:29;;;;;;;32.58;21.90;;;;;;;6.69;100.00;93674.84;5063152;28;20098;-70
2023/01/23 10:32:00;;;;;;;37.00;22.98;;;;;;;6.90;100.00;93671.59;5067273;28;20098;-70
2023/01/23 10:34:33;;;;;;;26.63;18.80;;;;;;;6.92;100.00;93674.78;5070150;28;20353;-70
2023/01/23 10:37:14;;;;;;;30.95;18.30;;;;;;;6.98;100.00;93659.75;5070153;28;20131;-70
2023/01/23 10:39:47;;;;;;;25.42;16.25;;;;;;;6.90;100.00;93663.94;5069632;28;20493;-70
2023/01/23 10:42:18;;;;;;;32.03;17.45;;;;;;;7.02;100.00;93660.94;5069890;28;20048;-70
2023/01/23 10:44:44;;;;;;;25.05;15.75;;;;;;;7.12;100.00;93666.59;5070028;28;20056;-70
2023/01/23 10:47:20;;;;;;;31.10;16.33;;;;;;;7.21;100.00;93650.22;5070128;28;20463;-70
2023/01/23 10:49:47;;;;;;;25.40;15.18;;;;;;;7.38;100.00;93662.00;5056308;28;20041;-70
2023/01/23 10:52:34;;;;;;;23.33;13.70;;;;;;;7.53;100.00;93656.84;5069854;28;20541;-70
2023/01/23 10:55:01;;;;;;;20.13;12.88;;;;;;;7.66;100.00;93679.22;5044560;28;20044;-70
2023/01/23 10:57:29;;;;;;;14.93;9.75;;;;;;;7.50;100.00;93681.00;5069469;28;20056;-70
2023/01/23 11:00:02;;;;;;;21.48;13.32;;;;;;;7.67;100.00;93681.59;5070071;28;20402;-70
2023/01/23 11:02:32;;;;;;;15.23;11.13;;;;;;;7.72;100.00;93679.31;5063949;28;20438;-70
2023/01/23 11:04:59;;;;;;;13.60;8.93;;;;;;;7.71;100.00;93692.25;5059988;28;20049;-70
2023/01/23 11:07:29;;;;;;;23.63;12.80;;;;;;;7.78;100.00;93687.22;5069060;28;20522;-70
2023/01/23 11:09:57;;;;;;;17.80;9.95;;;;;;;7.69;100.00;93671.97;5069170;28;20041;-70
2023/01/23 11:12:26;;;;;;;9.55;6.25;;;;;;;7.77;100.00;93690.78;5068913;28;20082;-70
2023/01/23 11:15:13;;;;;;;14.10;8.27;;;;;;;7.93;100.00;93688.00;5069217;28;20053;-70
2023/01/23 11:17:43;;;;;;;16.55;9.85;;;;;;;7.97;100.00;93684.06;5069451;28;20110;-70
2023/01/23 11:20:24;;;;;;;11.93;7.28;;;;;;;7.82;100.00;93680.78;5068693;28;20048;-70
2023/01/23 11:23:02;;;;;;;10.30;6.68;;;;;;;7.67;100.00;93684.16;5069065;28;20105;-70
2023/01/23 11:25:31;;;;;;;10.20;7.53;;;;;;;7.56;100.00;93677.75;5068830;28;20052;-70
2023/01/23 11:28:00;;;;;;;12.00;7.95;;;;;;;7.71;100.00;93671.81;5068918;28;20040;-70
2023/01/23 11:30:46;;;;;;;12.52;7.90;;;;;;;7.74;100.00;93672.25;5068042;28;20465;-70